Time;durP1;ratioP1;P1;durP2;ratioP2;P2;SDS_P1;SDS_P2;PMS_P1;PMS_P2;Temp;Humidity;BMP_temperature;BMP_pressure;BME280_temperature;BME280_humidity;BME280_pressure;Samples;Min_cycle;Max_cycle;Signal;HPM_P1;HPM_P2
2022/04/17 00:00:07;;;;;;;15.45;8.77;;;5.80;99.90;;;;;;4953485;28;20049;-59
2022/04/17 00:02:34;;;;;;;14.90;8.82;;;5.80;99.90;;;;;;4953983;29;20147;-58
2022/04/17 00:05:00;;;;;;;13.02;8.73;;;5.70;99.90;;;;;;4956270;28;20098;-58
2022/04/17 00:07:26;;;;;;;13.52;8.45;;;5.70;99.90;;;;;;4953457;28;20465;-58
2022/04/17 00:09:51;;;;;;;14.70;10.25;;;5.60;99.90;;;;;;4953634;28;20109;-58
2022/04/17 00:12:17;;;;;;;15.82;9.35;;;5.70;99.90;;;;;;4957197;28;20039;-59
2022/04/17 00:14:43;;;;;;;16.85;10.30;;;5.70;99.90;;;;;;4952769;28;20442;-58
2022/04/17 00:17:10;;;;;;;17.65;10.27;;;5.80;99.90;;;;;;4953765;29;20441;-59
2022/04/17 00:19:35;;;;;;;16.23;10.45;;;5.80;99.90;;;;;;4936297;28;20093;-57
2022/04/17 00:22:01;;;;;;;16.08;10.02;;;5.90;99.90;;;;;;4953200;28;20462;-59
2022/04/17 00:24:27;;;;;;;15.50;10.95;;;5.80;99.90;;;;;;4953362;28;20094;-57
2022/04/17 00:26:52;;;;;;;16.65;10.38;;;5.80;99.90;;;;;;4953653;29;20062;-58
2022/04/17 00:29:18;;;;;;;15.38;10.18;;;5.90;99.90;;;;;;4958585;28;20045;-59
2022/04/17 00:31:43;;;;;;;15.52;10.77;;;5.80;99.90;;;;;;4953398;28;20043;-59
2022/04/17 00:34:09;;;;;;;16.73;11.10;;;5.80;99.90;;;;;;4952948;29;20046;-59
2022/04/17 00:36:34;;;;;;;13.52;10.00;;;5.80;99.90;;;;;;4953611;29;20110;-58
2022/04/17 00:39:00;;;;;;;15.00;10.23;;;5.70;99.90;;;;;;4959404;28;20043;-58
2022/04/17 00:41:26;;;;;;;17.00;11.18;;;5.70;99.90;;;;;;4940481;29;20106;-59
2022/04/17 00:43:51;;;;;;;15.82;10.57;;;5.60;99.90;;;;;;4950585;28;20067;-58
2022/04/17 00:46:17;;;;;;;15.40;10.70;;;5.60;99.90;;;;;;4968703;28;20505;-58
2022/04/17 00:48:42;;;;;;;17.92;10.82;;;5.50;99.90;;;;;;4955180;28;20051;-58
2022/04/17 00:51:09;;;;;;;17.25;11.60;;;5.40;99.90;;;;;;4958256;28;20118;-58
2022/04/17 00:53:36;;;;;;;21.85;11.48;;;5.30;99.90;;;;;;4968639;28;20074;-58
2022/04/17 00:56:03;;;;;;;19.00;11.70;;;5.30;99.90;;;;;;4960316;28;20147;-58
2022/04/17 00:58:31;;;;;;;16.83;11.43;;;5.20;99.90;;;;;;4956988;28;20051;-59
2022/04/17 01:00:57;;;;;;;17.40;11.60;;;5.20;99.90;;;;;;4956702;28;20126;-59
2022/04/17 01:03:22;;;;;;;18.13;11.20;;;5.20;99.90;;;;;;4960624;28;20092;-59
2022/04/17 01:05:48;;;;;;;18.55;11.50;;;5.20;99.90;;;;;;4957186;28;20047;-59
2022/04/17 01:08:14;;;;;;;18.30;11.38;;;5.10;99.90;;;;;;4956718;29;20036;-59
2022/04/17 01:10:41;;;;;;;20.00;12.32;;;5.10;99.90;;;;;;4954069;28;20051;-58
2022/04/17 01:13:10;;;;;;;17.52;11.77;;;5.00;99.90;;;;;;4956121;28;20050;-58
2022/04/17 01:15:37;;;;;;;18.58;12.60;;;5.00;99.90;;;;;;4957167;28;20043;-59
2022/04/17 01:18:03;;;;;;;16.77;11.38;;;5.00;99.90;;;;;;4954678;28;20042;-58
2022/04/17 01:20:29;;;;;;;19.33;12.40;;;5.00;99.90;;;;;;4956465;28;20051;-59
2022/04/17 01:28:26;;;;;;;19.85;13.10;;;5.00;99.90;;;;;;4953967;28;20043;-58
2022/04/17 01:30:52;;;;;;;19.30;12.57;;;5.00;99.90;;;;;;4963622;28;20081;-59
2022/04/17 01:33:18;;;;;;;18.02;12.23;;;5.00;99.90;;;;;;4956291;28;20590;-58
2022/04/17 01:35:44;;;;;;;16.77;11.43;;;5.00;99.90;;;;;;4949481;28;20051;-58
2022/04/17 01:38:09;;;;;;;19.25;11.80;;;4.90;99.90;;;;;;4962692;28;20039;-59
2022/04/17 01:40:35;;;;;;;22.33;13.20;;;4.80;99.90;;;;;;4956491;28;20051;-59
2022/04/17 01:43:00;;;;;;;17.60;11.90;;;4.80;99.90;;;;;;4953418;28;20035;-59
2022/04/17 01:45:26;;;;;;;19.70;12.93;;;4.60;99.90;;;;;;4956244;28;20552;-60
2022/04/17 01:47:51;;;;;;;17.63;11.30;;;4.50;99.90;;;;;;4956077;28;20043;-59
2022/04/17 01:50:17;;;;;;;21.98;13.10;;;4.40;99.90;;;;;;4954070;28;20418;-59
2022/04/17 01:52:43;;;;;;;20.33;12.95;;;4.40;99.90;;;;;;4955215;28;20047;-58
2022/04/17 01:55:09;;;;;;;19.20;12.52;;;4.40;99.90;;;;;;4939024;29;20047;-58
2022/04/17 01:57:34;;;;;;;22.02;12.68;;;4.40;99.90;;;;;;4956513;29;20038;-59
2022/04/17 02:00:00;;;;;;;19.42;13.68;;;4.30;99.90;;;;;;4954264;28;20046;-57
2022/04/17 02:02:26;;;;;;;19.90;12.65;;;4.30;99.90;;;;;;4961449;28;20043;-59
2022/04/17 02:04:51;;;;;;;19.50;13.18;;;4.40;99.90;;;;;;4955274;28;20043;-57
2022/04/17 02:07:17;;;;;;;17.17;11.98;;;4.40;99.90;;;;;;4954093;28;20043;-59
2022/04/17 02:09:43;;;;;;;21.98;13.65;;;4.40;99.90;;;;;;4954871;28;20098;-59
2022/04/17 02:12:08;;;;;;;19.20;12.73;;;4.50;99.90;;;;;;4955987;28;20039;-58
2022/04/17 02:14:34;;;;;;;20.23;13.98;;;4.50;99.90;;;;;;4953835;28;20043;-58
2022/04/17 02:17:00;;;;;;;21.25;13.23;;;4.50;99.90;;;;;;4961315;28;20035;-58
2022/04/17 02:19:25;;;;;;;21.00;13.93;;;4.50;99.90;;;;;;4955424;28;20085;-58
2022/04/17 02:21:51;;;;;;;18.35;13.48;;;4.60;99.90;;;;;;4955498;28;20082;-59
2022/04/17 02:24:16;;;;;;;18.77;13.32;;;4.50;99.90;;;;;;4953895;28;20040;-59
2022/04/17 02:26:42;;;;;;;20.23;13.50;;;4.50;99.90;;;;;;4955143;28;20046;-59
2022/04/17 02:29:07;;;;;;;19.63;13.85;;;4.50;99.90;;;;;;4955380;28;20542;-58
2022/04/17 02:31:33;;;;;;;20.02;13.80;;;4.50;99.90;;;;;;4955678;29;20043;-58
2022/04/17 02:33:59;;;;;;;18.15;13.23;;;4.30;99.90;;;;;;4952731;28;20383;-59
2022/04/17 02:36:25;;;;;;;19.77;13.32;;;4.20;99.90;;;;;;4954762;28;20469;-59
2022/04/17 02:38:51;;;;;;;21.85;14.00;;;4.10;99.90;;;;;;4955496;28;20039;-58
2022/04/17 02:41:16;;;;;;;19.65;13.70;;;4.00;99.90;;;;;;4957450;28;20030;-59
2022/04/17 02:43:42;;;;;;;22.92;14.10;;;3.90;99.90;;;;;;4957707;28;20477;-58
2022/04/17 02:46:08;;;;;;;19.08;13.50;;;4.00;99.90;;;;;;4938237;29;20049;-59
2022/04/17 02:48:34;;;;;;;19.25;13.43;;;4.00;99.90;;;;;;4937949;29;20121;-59
2022/04/17 02:51:00;;;;;;;22.60;14.27;;;3.90;99.90;;;;;;4954022;28;20055;-59
2022/04/17 02:53:25;;;;;;;24.35;13.95;;;3.90;99.90;;;;;;4964694;28;20047;-59
2022/04/17 02:55:52;;;;;;;21.25;14.18;;;3.90;99.90;;;;;;4955189;28;20494;-58
2022/04/17 02:58:17;;;;;;;20.40;14.73;;;3.90;99.90;;;;;;4957475;28;20118;-59
2022/04/17 03:06:14;;;;;;;20.52;13.45;;;4.00;99.90;;;;;;4934206;28;20045;-59
2022/04/17 03:08:41;;;;;;;19.75;13.32;;;3.90;99.90;;;;;;4954142;28;20039;-58
2022/04/17 03:11:07;;;;;;;22.17;14.77;;;3.90;99.90;;;;;;4954627;28;20035;-58
2022/04/17 03:13:33;;;;;;;20.00;14.13;;;3.80;99.90;;;;;;4954323;28;20066;-60
2022/04/17 03:15:59;;;;;;;21.60;14.25;;;3.80;99.90;;;;;;4951077;28;20410;-60
2022/04/17 03:18:24;;;;;;;22.85;14.50;;;3.70;99.90;;;;;;4954526;28;20053;-59
2022/04/17 03:20:50;;;;;;;21.35;14.13;;;3.70;99.90;;;;;;4954456;28;20043;-60
2022/04/17 03:23:16;;;;;;;20.42;14.38;;;3.80;99.90;;;;;;4954588;29;20086;-59
2022/04/17 03:25:42;;;;;;;19.42;13.50;;;3.70;99.90;;;;;;4942140;28;20082;-59
2022/04/17 03:28:08;;;;;;;19.67;13.20;;;3.60;99.90;;;;;;4958448;28;20121;-59
2022/04/17 03:30:33;;;;;;;19.27;13.10;;;3.50;99.90;;;;;;4955898;28;20047;-59
2022/04/17 03:32:59;;;;;;;19.13;13.50;;;3.40;99.90;;;;;;4953423;28;20031;-59
2022/04/17 03:35:25;;;;;;;21.83;14.27;;;3.30;99.90;;;;;;4960950;28;20050;-60
2022/04/17 03:37:53;;;;;;;21.70;13.80;;;3.30;99.90;;;;;;4973605;28;20042;-59
2022/04/17 03:40:19;;;;;;;22.50;13.75;;;3.30;99.90;;;;;;4967894;28;20070;-59
2022/04/17 03:42:45;;;;;;;23.10;14.05;;;3.30;99.90;;;;;;4954170;28;20063;-59
2022/04/17 03:45:14;;;;;;;20.15;14.18;;;3.20;99.90;;;;;;4959770;28;21040;-59
2022/04/17 03:47:41;;;;;;;19.10;13.40;;;3.30;99.90;;;;;;4929207;28;20034;-58
2022/04/17 03:50:07;;;;;;;20.73;14.27;;;3.30;99.90;;;;;;4953401;28;20170;-59
2022/04/17 03:52:39;;;;;;;18.55;13.07;;;3.20;99.90;;;;;;4960046;28;20449;-59
2022/04/17 03:55:06;;;;;;;22.10;14.23;;;3.10;99.90;;;;;;4960866;28;20070;-59
2022/04/17 03:57:32;;;;;;;22.17;14.55;;;3.10;99.90;;;;;;4953595;28;20050;-59
2022/04/17 03:59:58;;;;;;;20.20;13.43;;;3.00;99.90;;;;;;4936604;29;20082;-60
2022/04/17 04:02:24;;;;;;;22.55;13.68;;;2.80;99.90;;;;;;4951043;28;20071;-59
2022/04/17 04:04:50;;;;;;;21.05;13.80;;;2.60;99.90;;;;;;4950142;28;20090;-58
2022/04/17 04:07:16;;;;;;;21.83;14.32;;;2.40;99.90;;;;;;4953278;28;20039;-59
2022/04/17 04:09:42;;;;;;;22.63;14.73;;;2.40;99.90;;;;;;4962536;28;20551;-59
2022/04/17 04:12:07;;;;;;;20.05;14.25;;;2.40;99.90;;;;;;4970118;28;20070;-58
2022/04/17 04:14:33;;;;;;;24.95;14.55;;;2.70;99.90;;;;;;4953751;28;20040;-59
2022/04/17 04:16:59;;;;;;;22.27;14.50;;;3.00;99.90;;;;;;4953198;28;20031;-58
2022/04/17 04:19:25;;;;;;;20.15;13.40;;;3.20;99.90;;;;;;4953536;29;20039;-58
2022/04/17 04:21:50;;;;;;;23.17;13.48;;;3.00;99.90;;;;;;4955041;28;20129;-59
2022/04/17 04:24:19;;;;;;;20.23;14.00;;;2.80;99.90;;;;;;4953120;28;20047;-59
2022/04/17 04:28:32;;;;;;;20.45;14.02;;;2.80;99.90;;;;;;4953000;28;20068;-59
2022/04/17 04:29:31;;;;;;;19.98;13.40;;;2.50;99.90;;;;;;4957531;28;20406;-59
2022/04/17 04:31:57;;;;;;;20.77;13.20;;;2.30;99.90;;;;;;4953293;28;20517;-59
2022/04/17 04:34:23;;;;;;;19.65;12.95;;;2.00;99.90;;;;;;4952688;28;20047;-59
2022/04/17 04:36:48;;;;;;;20.88;14.02;;;2.00;99.90;;;;;;4953549;29;20039;-60
2022/04/17 04:39:14;;;;;;;22.58;15.20;;;2.20;99.90;;;;;;4955544;28;20046;-58
2022/04/17 04:41:39;;;;;;;26.00;14.25;;;2.70;99.90;;;;;;4963892;28;20035;-58
2022/04/17 04:44:05;;;;;;;24.73;14.25;;;3.00;99.90;;;;;;4953298;29;20035;-59
2022/04/17 04:46:31;;;;;;;22.23;14.85;;;3.20;99.90;;;;;;4951043;28;20039;-59
2022/04/17 04:51:40;;;;;;;21.63;14.30;;;3.50;99.90;;;;;;4950384;28;20047;-60
2022/04/17 04:54:07;;;;;;;19.80;13.90;;;3.70;99.90;;;;;;4951989;28;20387;-59
2022/04/17 04:56:33;;;;;;;22.63;14.18;;;3.80;99.90;;;;;;4955604;28;20054;-59
2022/04/17 04:58:59;;;;;;;22.17;13.88;;;3.80;99.90;;;;;;4957440;28;20508;-59
2022/04/17 05:01:24;;;;;;;22.73;14.38;;;3.80;99.90;;;;;;4949799;29;20047;-60
2022/04/17 05:03:50;;;;;;;21.38;13.90;;;3.80;99.90;;;;;;4933616;28;20053;-58
2022/04/17 05:06:17;;;;;;;21.70;14.38;;;3.80;99.90;;;;;;4949248;28;20047;-59
2022/04/17 05:08:42;;;;;;;23.58;14.20;;;3.80;99.90;;;;;;4940803;28;20145;-59
2022/04/17 05:11:08;;;;;;;23.20;14.43;;;3.80;99.90;;;;;;4959786;28;20530;-58
2022/04/17 05:13:34;;;;;;;20.35;13.57;;;3.90;99.90;;;;;;4956157;28;20039;-59
2022/04/17 05:16:00;;;;;;;22.98;14.43;;;3.90;99.90;;;;;;4949173;28;20579;-59
2022/04/17 05:18:26;;;;;;;24.27;13.98;;;4.00;99.90;;;;;;4949891;29;20047;-60
2022/04/17 05:20:51;;;;;;;23.40;13.85;;;4.00;99.90;;;;;;4946232;28;20524;-59
2022/04/17 05:23:26;;;;;;;25.27;14.73;;;4.00;99.90;;;;;;4948887;28;20047;-59
2022/04/17 05:25:57;;;;;;;25.20;13.73;;;4.10;99.90;;;;;;4932675;29;20459;-60
2022/04/17 05:28:24;;;;;;;21.38;13.80;;;4.10;99.90;;;;;;4949646;28;20047;-59
2022/04/17 05:30:50;;;;;;;22.63;13.90;;;4.10;99.90;;;;;;4949316;28;20036;-58
2022/04/17 05:33:20;;;;;;;20.50;13.70;;;4.20;99.90;;;;;;4949291;28;20120;-58
2022/04/17 05:35:46;;;;;;;21.52;13.98;;;4.20;99.90;;;;;;4949583;29;20039;-60
2022/04/17 05:38:12;;;;;;;28.17;14.05;;;4.20;99.90;;;;;;4949408;28;20043;-60
2022/04/17 05:40:42;;;;;;;23.17;13.38;;;4.30;99.90;;;;;;4960108;28;20050;-59
2022/04/17 05:43:09;;;;;;;23.50;14.32;;;4.30;99.90;;;;;;4965099;28;20034;-60
2022/04/17 05:45:35;;;;;;;22.38;14.07;;;4.30;99.90;;;;;;4954510;28;20083;-58
2022/04/17 05:48:03;;;;;;;23.88;14.38;;;4.30;99.90;;;;;;4952346;28;20128;-58
2022/04/17 05:50:28;;;;;;;22.85;14.40;;;4.30;99.90;;;;;;4953153;28;20046;-58
2022/04/17 05:52:54;;;;;;;23.45;14.15;;;4.40;99.90;;;;;;4971536;28;20042;-58
2022/04/17 05:55:20;;;;;;;21.75;13.85;;;4.40;99.90;;;;;;4950775;28;20043;-60
2022/04/17 05:57:46;;;;;;;24.90;14.30;;;4.50;99.90;;;;;;4952073;28;20047;-59
2022/04/17 06:00:12;;;;;;;28.52;14.82;;;4.60;99.90;;;;;;4952814;29;20050;-58
2022/04/17 06:02:38;;;;;;;22.05;13.40;;;4.60;99.90;;;;;;4949130;28;20151;-60
2022/04/17 06:05:05;;;;;;;20.58;14.38;;;4.70;99.90;;;;;;4951917;28;20118;-60
2022/04/17 06:07:31;;;;;;;24.35;14.70;;;4.70;99.90;;;;;;4952826;29;20075;-60
2022/04/17 06:10:05;;;;;;;20.73;13.90;;;4.80;99.90;;;;;;4932594;28;20075;-60
2022/04/17 06:12:31;;;;;;;21.95;13.77;;;4.90;99.90;;;;;;4949121;28;20509;-59
2022/04/17 06:14:56;;;;;;;21.63;13.57;;;5.00;99.90;;;;;;4950787;28;20047;-59
2022/04/17 06:17:22;;;;;;;22.63;14.10;;;5.00;99.90;;;;;;4950046;28;20038;-59
2022/04/17 06:19:47;;;;;;;23.17;14.65;;;5.10;99.90;;;;;;4951556;28;20051;-60
2022/04/17 06:22:13;;;;;;;23.55;14.48;;;5.20;99.90;;;;;;4934742;29;20047;-60
2022/04/17 06:24:39;;;;;;;24.65;14.52;;;5.30;99.90;;;;;;4952602;29;20127;-58
2022/04/17 06:27:05;;;;;;;22.90;14.65;;;5.40;99.90;;;;;;4953030;28;20429;-60
2022/04/17 06:29:30;;;;;;;22.05;14.02;;;5.50;99.90;;;;;;4961394;28;20039;-59
2022/04/17 06:31:56;;;;;;;24.25;14.98;;;5.60;99.90;;;;;;4952028;28;20050;-59
2022/04/17 06:34:21;;;;;;;22.30;14.38;;;5.70;99.90;;;;;;4952697;28;20585;-59
2022/04/17 06:36:47;;;;;;;23.80;14.13;;;5.80;99.90;;;;;;4953387;28;20106;-60
2022/04/17 06:39:13;;;;;;;20.48;13.85;;;5.90;99.90;;;;;;4951695;28;20082;-59
2022/04/17 06:41:38;;;;;;;21.20;14.38;;;6.00;99.90;;;;;;4951222;28;20053;-59
2022/04/17 06:44:04;;;;;;;23.33;14.63;;;6.20;99.90;;;;;;4956146;28;20046;-60
2022/04/17 06:46:30;;;;;;;24.33;14.85;;;6.30;99.90;;;;;;4953691;28;20097;-59
2022/04/17 06:48:55;;;;;;;21.60;14.18;;;6.40;99.90;;;;;;4952997;28;20050;-58
2022/04/17 06:51:24;;;;;;;22.23;14.05;;;6.50;99.90;;;;;;4933741;28;20051;-59
2022/04/17 06:53:50;;;;;;;24.00;14.07;;;6.60;99.90;;;;;;4950992;28;20078;-59
2022/04/17 06:56:18;;;;;;;21.38;13.52;;;6.80;99.90;;;;;;4951721;28;20031;-59
2022/04/17 06:58:48;;;;;;;20.77;13.40;;;6.90;99.90;;;;;;4951373;29;20379;-59
2022/04/17 07:01:14;;;;;;;21.17;13.90;;;7.00;99.90;;;;;;4935474;28;20051;-59
2022/04/17 07:03:44;;;;;;;20.95;13.82;;;7.10;99.90;;;;;;4951274;28;20039;-59
2022/04/17 07:06:09;;;;;;;24.27;13.63;;;7.20;99.90;;;;;;4951982;28;20509;-58
2022/04/17 07:08:35;;;;;;;20.65;13.43;;;7.30;99.90;;;;;;4956685;28;20039;-60
2022/04/17 07:11:00;;;;;;;22.27;13.23;;;7.40;99.90;;;;;;4958713;28;20050;-60
2022/04/17 07:13:26;;;;;;;20.77;13.30;;;7.50;99.90;;;;;;4950204;28;20130;-60
2022/04/17 07:15:52;;;;;;;23.63;13.73;;;7.60;99.90;;;;;;4932399;28;20119;-60
2022/04/17 07:18:18;;;;;;;18.55;12.52;;;7.70;99.90;;;;;;4964870;28;20173;-60
2022/04/17 07:20:43;;;;;;;19.90;13.00;;;7.80;99.90;;;;;;4935784;28;20125;-59
2022/04/17 07:23:09;;;;;;;20.95;13.50;;;8.00;99.90;;;;;;4949906;29;20078;-61
2022/04/17 07:25:36;;;;;;;20.00;12.75;;;8.00;99.90;;;;;;4954122;28;20035;-59
2022/04/17 07:28:02;;;;;;;20.10;13.32;;;8.10;99.90;;;;;;4949752;28;20762;-59
2022/04/17 07:30:31;;;;;;;19.70;12.70;;;8.20;99.90;;;;;;4954508;28;20051;-59
2022/04/17 07:32:58;;;;;;;19.45;12.80;;;8.20;99.90;;;;;;4950706;28;20589;-59
2022/04/17 07:35:25;;;;;;;19.48;13.05;;;8.40;99.90;;;;;;4950210;28;20062;-59
2022/04/17 07:37:55;;;;;;;17.95;12.50;;;8.40;99.90;;;;;;4933917;29;20047;-59
2022/04/17 07:40:25;;;;;;;18.42;12.75;;;8.50;99.90;;;;;;4949915;28;20045;-59
2022/04/17 07:42:52;;;;;;;18.60;12.93;;;8.60;99.90;;;;;;4951215;23;20047;-61
2022/04/17 07:45:18;;;;;;;20.30;13.10;;;8.60;99.90;;;;;;4966981;28;20413;-61
2022/04/17 07:47:44;;;;;;;24.52;13.55;;;8.70;99.90;;;;;;4950049;28;20239;-61
2022/04/17 07:50:12;;;;;;;18.98;12.25;;;8.80;99.90;;;;;;4930614;28;20046;-60
2022/04/17 07:52:39;;;;;;;18.08;11.35;;;9.00;99.90;;;;;;4953679;28;20055;-59
2022/04/17 07:55:06;;;;;;;17.77;11.80;;;9.10;99.90;;;;;;4960900;28;20042;-59
2022/04/17 07:57:53;;;;;;;15.90;11.15;;;9.20;99.90;;;;;;4966407;28;20035;-61
2022/04/17 08:00:21;;;;;;;16.58;11.48;;;9.30;99.90;;;;;;4962475;28;20055;-60
2022/04/17 08:03:20;;;;;;;18.27;11.60;;;9.50;99.90;;;;;;4961778;28;20042;-59
2022/04/17 08:05:46;;;;;;;22.40;10.88;;;9.50;99.90;;;;;;4973143;28;20511;-60
2022/04/17 08:08:11;;;;;;;17.35;11.00;;;9.60;99.90;;;;;;4959766;28;20040;-61
2022/04/17 08:10:38;;;;;;;15.32;10.43;;;9.60;99.90;;;;;;4962996;28;20125;-59
2022/04/17 08:13:04;;;;;;;15.30;10.65;;;9.70;99.90;;;;;;4965116;28;20432;-60
2022/04/17 08:15:29;;;;;;;15.90;11.02;;;9.70;99.90;;;;;;4963721;28;20118;-60
2022/04/17 08:17:55;;;;;;;17.40;11.13;;;9.70;99.90;;;;;;4963385;28;20117;-60
2022/04/17 08:20:21;;;;;;;15.73;10.25;;;9.80;99.90;;;;;;4967936;28;20066;-61
2022/04/17 08:22:47;;;;;;;17.00;10.55;;;9.90;99.90;;;;;;4968445;28;20438;-58
2022/04/17 08:25:13;;;;;;;17.17;10.80;;;10.00;99.90;;;;;;4966209;28;20034;-61
2022/04/17 08:27:50;;;;;;;18.63;10.55;;;10.10;99.90;;;;;;4964901;28;20160;-61
2022/04/17 08:30:23;;;;;;;15.82;10.23;;;10.10;99.90;;;;;;4969369;28;20046;-60
2022/04/17 08:32:49;;;;;;;15.63;10.35;;;10.20;99.90;;;;;;4968884;28;20046;-61
2022/04/17 08:35:15;;;;;;;12.55;8.52;;;10.30;99.90;;;;;;4964595;28;20038;-60
2022/04/17 08:37:43;;;;;;;15.07;8.70;;;10.40;99.90;;;;;;4973093;28;20050;-61
2022/04/17 08:40:10;;;;;;;11.68;7.72;;;10.50;99.90;;;;;;4961611;28;20440;-60
2022/04/17 08:42:37;;;;;;;10.85;7.38;;;10.70;99.90;;;;;;4965158;28;20731;-60
2022/04/17 08:45:03;;;;;;;11.63;8.20;;;10.70;99.90;;;;;;4960775;28;20401;-61
2022/04/17 08:47:29;;;;;;;11.15;8.10;;;10.90;99.90;;;;;;4951301;28;20039;-60
2022/04/17 08:49:55;;;;;;;14.70;9.10;;;10.90;99.90;;;;;;4963906;28;20485;-60
2022/04/17 08:52:22;;;;;;;13.77;9.23;;;11.00;99.90;;;;;;4966101;28;20044;-60
2022/04/17 08:54:49;;;;;;;12.88;8.80;;;11.00;99.90;;;;;;4953371;29;20102;-60
2022/04/17 08:57:16;;;;;;;13.18;8.43;;;11.10;99.90;;;;;;4953080;28;20036;-61
2022/04/17 08:59:42;;;;;;;13.85;8.63;;;11.10;99.40;;;;;;4966845;28;20077;-61
2022/04/17 09:02:10;;;;;;;13.23;8.60;;;11.20;99.90;;;;;;4965668;28;20091;-61
2022/04/17 09:04:41;;;;;;;11.88;8.50;;;11.20;99.90;;;;;;4963061;28;20058;-60
2022/04/17 09:07:08;;;;;;;12.98;8.85;;;11.30;99.80;;;;;;4959622;28;20085;-59
2022/04/17 09:09:47;;;;;;;12.77;8.57;;;11.40;99.80;;;;;;4964350;28;20087;-61
2022/04/17 09:12:24;;;;;;;12.35;8.93;;;11.40;99.60;;;;;;4972582;28;20043;-61
2022/04/17 09:14:50;;;;;;;12.57;8.60;;;11.50;99.80;;;;;;4965244;28;20070;-61
2022/04/17 09:17:16;;;;;;;13.43;9.07;;;11.50;99.50;;;;;;4970690;28;20065;-60
2022/04/17 09:19:43;;;;;;;12.88;8.73;;;11.60;99.50;;;;;;4973887;28;20039;-60
2022/04/17 09:22:12;;;;;;;14.23;8.77;;;11.60;99.90;;;;;;4970985;28;20047;-59
2022/04/17 09:24:39;;;;;;;13.95;9.05;;;11.80;99.60;;;;;;4966999;28;20058;-60
2022/04/17 09:27:06;;;;;;;12.15;8.95;;;11.90;99.30;;;;;;4976577;28;20050;-61
2022/04/17 09:29:36;;;;;;;12.20;8.70;;;11.90;99.90;;;;;;4974029;28;20042;-60
2022/04/17 09:32:09;;;;;;;13.00;9.32;;;11.90;98.70;;;;;;4967457;28;20412;-61
2022/04/17 09:34:43;;;;;;;12.88;9.07;;;12.00;98.70;;;;;;4967459;28;20042;-60
2022/04/17 09:37:17;;;;;;;16.02;9.02;;;12.10;99.00;;;;;;4973217;28;20049;-60
2022/04/17 09:39:43;;;;;;;13.63;9.60;;;12.20;98.90;;;;;;4971358;28;20047;-61
2022/04/17 09:42:09;;;;;;;12.00;9.10;;;12.30;99.20;;;;;;4950083;28;20122;-61
2022/04/17 09:44:36;;;;;;;13.27;9.52;;;12.30;99.00;;;;;;4975877;28;20049;-60
2022/04/17 09:47:12;;;;;;;14.98;9.45;;;12.40;98.70;;;;;;4965155;28;20042;-59
2022/04/17 09:49:59;;;;;;;13.85;9.18;;;12.50;98.00;;;;;;4965616;28;20046;-60
2022/04/17 09:52:40;;;;;;;13.73;9.55;;;12.50;95.30;;;;;;4960831;28;20059;-60
2022/04/17 09:55:06;;;;;;;13.97;8.67;;;12.50;97.10;;;;;;4955386;28;20093;-59
2022/04/17 09:57:32;;;;;;;13.07;9.52;;;12.60;98.60;;;;;;4971350;28;20034;-60
2022/04/17 10:00:16;;;;;;;14.18;9.52;;;12.80;99.30;;;;;;4967069;28;20125;-60
2022/04/17 10:02:43;;;;;;;12.27;8.80;;;13.00;99.90;;;;;;4971058;28;20030;-60
2022/04/17 10:05:11;;;;;;;12.50;8.68;;;13.10;98.40;;;;;;4967054;28;20109;-60
2022/04/17 10:07:42;;;;;;;13.32;9.43;;;13.20;97.40;;;;;;4967346;28;20047;-59
2022/04/17 10:10:09;;;;;;;13.88;9.30;;;13.20;97.00;;;;;;4975600;28;20485;-60
2022/04/17 10:12:35;;;;;;;11.45;8.52;;;13.20;97.40;;;;;;4970685;28;20039;-59
2022/04/17 10:15:06;;;;;;;14.63;9.18;;;13.20;95.30;;;;;;4966799;28;20046;-60
2022/04/17 10:17:38;;;;;;;14.80;9.15;;;13.40;97.40;;;;;;4975319;28;20118;-60
2022/04/17 10:20:08;;;;;;;13.60;8.98;;;13.50;95.90;;;;;;4968534;28;20039;-60
2022/04/17 10:22:35;;;;;;;11.88;8.85;;;13.70;96.80;;;;;;4971182;28;20043;-60
2022/04/17 10:25:03;;;;;;;13.43;8.90;;;13.80;97.70;;;;;;4966516;28;20123;-59
2022/04/17 10:27:59;;;;;;;11.88;8.32;;;13.80;95.60;;;;;;4969807;28;20039;-60
2022/04/17 10:30:32;;;;;;;13.10;8.55;;;13.90;90.30;;;;;;4966408;28;20101;-60
2022/04/17 10:33:20;;;;;;;11.13;7.85;;;13.90;95.10;;;;;;4966419;28;20047;-60
2022/04/17 10:36:15;;;;;;;9.88;7.18;;;14.00;95.10;;;;;;4975383;28;20042;-60
2022/04/17 10:38:45;;;;;;;10.02;7.43;;;14.10;89.30;;;;;;4964049;28;20405;-61
2022/04/17 10:41:15;;;;;;;11.45;7.55;;;14.30;91.90;;;;;;4966335;28;20067;-60
2022/04/17 10:43:43;;;;;;;10.95;8.20;;;14.40;94.10;;;;;;4971502;28;20440;-60
2022/04/17 10:46:15;;;;;;;9.20;6.65;;;14.50;86.10;;;;;;4965793;28;20047;-59
2022/04/17 10:49:04;;;;;;;8.45;6.38;;;14.70;94.00;;;;;;4966273;28;20114;-59
2022/04/17 10:51:32;;;;;;;10.48;6.85;;;14.80;91.20;;;;;;4967309;28;20051;-60
2022/04/17 10:54:07;;;;;;;8.05;6.25;;;14.80;91.10;;;;;;4958377;28;20100;-59
2022/04/17 10:56:35;;;;;;;9.98;6.50;;;14.90;89.60;;;;;;4963037;28;20054;-60
2022/04/17 10:59:06;;;;;;;8.25;6.38;;;15.00;86.00;;;;;;4955456;29;20039;-60
2022/04/17 11:01:46;;;;;;;8.33;5.90;;;15.10;72.30;;;;;;4955786;28;20433;-59
2022/04/17 11:04:29;;;;;;;8.20;6.30;;;15.10;77.40;;;;;;4962967;28;20314;-60
2022/04/17 11:07:04;;;;;;;9.25;6.20;;;15.20;79.90;;;;;;4973522;28;20511;-60
2022/04/17 11:09:31;;;;;;;8.23;6.10;;;15.20;66.00;;;;;;4967024;28;20110;-60
2022/04/17 11:12:07;;;;;;;7.63;5.85;;;15.30;85.40;;;;;;4962185;28;20042;-60
2022/04/17 11:14:32;;;;;;;10.00;6.47;;;15.40;67.90;;;;;;4965868;28;20077;-59
2022/04/17 11:17:11;;;;;;;8.32;6.20;;;15.40;74.50;;;;;;4974098;28;20070;-59
2022/04/17 11:19:39;;;;;;;9.40;6.10;;;15.50;79.30;;;;;;4960679;28;20497;-60
2022/04/17 11:22:06;;;;;;;10.43;6.22;;;15.50;79.40;;;;;;4965689;28;20081;-60
2022/04/17 11:24:54;;;;;;;10.15;6.30;;;15.60;81.40;;;;;;4973961;28;20532;-60
2022/04/17 11:27:32;;;;;;;8.60;6.32;;;15.70;75.10;;;;;;4968426;28;20035;-58
2022/04/17 11:29:58;;;;;;;9.40;6.63;;;15.80;70.30;;;;;;4972668;28;20476;-57
2022/04/17 11:32:30;;;;;;;10.82;7.18;;;15.90;79.10;;;;;;4965574;28;20047;-59
2022/04/17 11:34:57;;;;;;;9.40;6.63;;;15.90;78.80;;;;;;4963060;28;20753;-57
2022/04/17 11:37:23;;;;;;;8.63;6.15;;;16.10;79.60;;;;;;4962597;28;20043;-57
2022/04/17 11:39:50;;;;;;;10.02;6.35;;;16.20;73.70;;;;;;4965502;28;20046;-56
2022/04/17 11:42:15;;;;;;;9.35;6.50;;;16.30;72.90;;;;;;4969562;28;20509;-57
2022/04/17 11:44:43;;;;;;;9.82;6.50;;;16.40;74.70;;;;;;4970702;28;20135;-56
2022/04/17 11:47:17;;;;;;;9.73;6.30;;;16.50;80.10;;;;;;4966798;28;20050;-58
2022/04/17 11:49:43;;;;;;;10.05;5.90;;;16.50;69.50;;;;;;4956376;28;20381;-56
2022/04/17 11:52:10;;;;;;;8.82;6.38;;;16.50;77.80;;;;;;4961826;28;20528;-57
2022/04/17 11:54:36;;;;;;;9.73;6.85;;;16.60;74.20;;;;;;4962088;28;20039;-60
2022/04/17 11:57:01;;;;;;;8.80;6.80;;;16.70;76.70;;;;;;4969906;28;20114;-57
2022/04/17 11:59:27;;;;;;;9.93;6.80;;;16.70;68.20;;;;;;4964719;28;20130;-57
2022/04/17 12:02:09;;;;;;;8.98;6.60;;;16.60;66.30;;;;;;4973106;28;20039;-57
2022/04/17 12:04:36;;;;;;;8.68;6.43;;;16.70;63.90;;;;;;4968310;28;20100;-57
2022/04/17 12:07:02;;;;;;;10.23;6.78;;;16.80;69.00;;;;;;4963006;28;20137;-55
2022/04/17 12:09:27;;;;;;;9.48;6.75;;;16.80;65.30;;;;;;4955406;28;20070;-57
2022/04/17 12:11:53;;;;;;;8.65;5.95;;;16.90;62.80;;;;;;4963202;28;20047;-58
2022/04/17 12:14:32;;;;;;;9.90;6.85;;;17.00;65.80;;;;;;4972367;28;20031;-56
2022/04/17 12:16:58;;;;;;;9.88;6.85;;;17.10;64.40;;;;;;4967917;28;20031;-55
2022/04/17 12:19:29;;;;;;;8.70;6.45;;;17.20;67.90;;;;;;4965920;28;20413;-59
2022/04/17 12:21:55;;;;;;;8.43;6.20;;;17.20;64.80;;;;;;4954764;28;20090;-57
2022/04/17 12:24:26;;;;;;;8.88;6.35;;;17.30;63.60;;;;;;4961185;28;20521;-56
2022/04/17 12:26:52;;;;;;;8.65;6.22;;;17.30;60.70;;;;;;4959198;28;20054;-57
2022/04/17 12:29:18;;;;;;;9.23;6.55;;;17.40;60.60;;;;;;4964154;28;20038;-57
2022/04/17 12:31:44;;;;;;;8.88;5.90;;;17.50;60.90;;;;;;4972080;28;20419;-57
2022/04/17 12:34:15;;;;;;;9.90;5.88;;;17.60;59.80;;;;;;4964815;28;20039;-57
2022/04/17 12:36:42;;;;;;;8.70;5.97;;;17.70;58.70;;;;;;4963539;28;20385;-57
2022/04/17 12:39:09;;;;;;;9.20;6.18;;;17.80;58.60;;;;;;4957013;28;20137;-56
2022/04/17 12:41:40;;;;;;;8.63;6.15;;;17.80;56.90;;;;;;4960562;28;20049;-56
2022/04/17 12:44:06;;;;;;;8.77;5.60;;;17.80;56.20;;;;;;4960263;28;20050;-54
2022/04/17 12:46:33;;;;;;;9.80;6.10;;;17.90;57.30;;;;;;4952941;28;20047;-53
2022/04/17 12:49:13;;;;;;;9.65;6.68;;;18.00;56.20;;;;;;4936014;29;20043;-57
2022/04/17 12:51:51;;;;;;;8.68;5.43;;;18.00;54.30;;;;;;4950982;28;20071;-56
2022/04/17 12:54:16;;;;;;;23.63;6.93;;;18.20;55.00;;;;;;4965357;28;20035;-58